Time;durP1;ratioP1;P1;durP2;ratioP2;P2;SDS_P1;SDS_P2;PMS_P1;PMS_P2;Temp;Humidity;BMP_temperature;BMP_pressure;BME280_temperature;BME280_humidity;BME280_pressure;Samples;Min_cycle;Max_cycle;Signal;HPM_P1;HPM_P2
2021/09/27 00:00:01;;;;;;;4.96;2.16;;;;;;;9.82;67.36;100443.82;363063;144;856241;-60
2021/09/27 00:01:05;;;;;;;6.25;2.45;;;;;;;9.78;67.56;100442.97;362342;144;863686;-59
2021/09/27 00:02:07;;;;;;;5.51;2.41;;;;;;;9.81;67.65;100447.27;363150;144;856114;-59
2021/09/27 00:03:09;;;;;;;7.26;2.75;;;;;;;9.84;67.51;100443.84;363767;144;856196;-59
2021/09/27 00:04:11;;;;;;;9.93;3.01;;;;;;;9.81;67.29;100443.83;363009;144;863769;-59
2021/09/27 00:05:13;;;;;;;6.09;2.46;;;;;;;9.79;67.23;100448.98;363094;144;863621;-59
2021/09/27 00:06:15;;;;;;;4.49;2.63;;;;;;;9.78;67.46;100452.42;363211;144;857318;-59
2021/09/27 00:07:17;;;;;;;7.57;2.87;;;;;;;9.76;67.32;100448.97;362848;144;856417;-59
2021/09/27 00:08:19;;;;;;;4.64;2.50;;;;;;;9.75;67.27;100455.88;363063;144;864314;-59
2021/09/27 00:09:21;;;;;;;7.53;2.71;;;;;;;9.78;67.32;100460.19;364907;144;863819;-59
2021/09/27 00:10:27;;;;;;;8.31;3.36;;;;;;;9.76;67.23;100456.73;362717;144;856226;-60
2021/09/27 00:11:29;;;;;;;5.28;2.54;;;;;;;9.75;67.01;100458.47;362534;144;856773;-59
2021/09/27 00:12:31;;;;;;;3.53;2.09;;;;;;;9.73;67.00;100465.36;361720;145;856344;-59
2021/09/27 00:13:35;;;;;;;10.95;3.07;;;;;;;9.71;67.13;100464.48;361343;145;863745;-59
2021/09/27 00:14:36;;;;;;;6.41;2.59;;;;;;;9.70;67.37;100467.05;364614;144;857095;-59
2021/09/27 00:29:17;;;;;;;5.67;1.65;;;;;;;9.62;68.08;100467.04;370113;141;881152;-60
2021/09/27 00:30:20;;;;;;;5.73;2.47;;;;;;;9.56;68.02;100467.86;363739;147;856610;-59
2021/09/27 00:31:22;;;;;;;5.95;1.97;;;;;;;9.58;67.92;100466.14;364067;146;856356;-60
2021/09/27 00:32:23;;;;;;;6.51;2.43;;;;;;;9.59;67.81;100464.44;363228;146;856382;-60
2021/09/27 00:33:25;;;;;;;5.06;2.08;;;;;;;9.61;67.69;100468.74;363627;146;863760;-59
2021/09/27 00:34:27;;;;;;;6.24;2.06;;;;;;;9.64;67.72;100475.66;363604;146;864137;-59
2021/09/27 00:35:30;;;;;;;3.85;2.06;;;;;;;9.63;67.46;100463.59;363499;146;863668;-59
2021/09/27 00:36:34;;;;;;;4.58;1.77;;;;;;;9.66;67.53;100468.78;364588;146;863685;-59
2021/09/27 00:37:35;;;;;;;5.49;1.81;;;;;;;9.70;67.39;100469.64;364751;146;856674;-59
2021/09/27 00:38:37;;;;;;;5.66;2.24;;;;;;;9.72;67.35;100479.14;365571;146;863841;-59
2021/09/27 00:39:39;;;;;;;2.68;1.77;;;;;;;9.73;66.96;100472.23;363978;146;863598;-59
2021/09/27 00:40:44;;;;;;;5.58;2.44;;;;;;;;;;362815;147;856096;-59
2021/09/27 00:41:45;;;;;;;5.94;1.84;;;;;;;;;;366135;147;856400;-59
2021/09/27 00:42:47;;;;;;;3.28;1.45;;;;;;;;;;364466;147;856471;-59
2021/09/27 00:43:48;;;;;;;2.71;1.61;;;;;;;;;;363620;146;856486;-60
2021/09/27 00:44:50;;;;;;;7.42;2.09;;;;;;;;;;362072;147;858707;-60
2021/09/27 00:45:53;;;;;;;6.64;2.11;;;;;;;;;;365396;147;863537;-60
2021/09/27 00:46:55;;;;;;;5.22;1.98;;;;;;;;;;364738;146;856083;-59
2021/09/27 00:47:57;;;;;;;4.78;1.98;;;;;;;;;;359183;146;856164;-59
2021/09/27 00:48:59;;;;;;;3.51;1.72;;;;;;;;;;357665;149;863798;-60
2021/09/27 00:50:00;;;;;;;4.97;1.84;;;;;;;;;;356385;147;863702;-59
2021/09/27 00:51:04;;;;;;;9.24;2.78;;;;;;;;;;356983;147;856400;-59
2021/09/27 00:52:05;;;;;;;4.96;1.83;;;;;;;;;;354670;147;863660;-60
2021/09/27 00:53:12;;;;;;;6.54;2.58;;;;;;;;;;357189;147;856100;-59
2021/09/27 00:54:15;;;;;;;3.86;1.92;;;;;;;;;;356436;147;863648;-59
2021/09/27 00:55:17;;;;;;;3.89;2.01;;;;;;;;;;356297;149;857659;-59
2021/09/27 00:56:22;;;;;;;8.25;2.02;;;;;;;;;;356225;149;856377;-59
2021/09/27 00:57:24;;;;;;;6.04;1.77;;;;;;;;;;357727;147;856624;-60
2021/09/27 00:58:26;;;;;;;3.79;1.70;;;;;;;;;;356136;147;856276;-61
2021/09/27 00:59:27;;;;;;;7.47;2.21;;;;;;;;;;357238;147;856182;-60
2021/09/27 01:00:30;;;;;;;4.37;1.81;;;;;;;;;;356396;149;859049;-60
2021/09/27 01:01:32;;;;;;;7.11;2.14;;;;;;;;;;358105;149;856302;-60
2021/09/27 01:02:35;;;;;;;5.49;2.18;;;;;;;;;;357723;149;863577;-59
2021/09/27 01:03:36;;;;;;;5.13;1.73;;;;;;;;;;356070;149;863616;-60
2021/09/27 01:04:38;;;;;;;4.54;1.72;;;;;;;;;;355823;147;860691;-59
2021/09/27 01:05:40;;;;;;;3.71;1.86;;;;;;;;;;356312;149;856702;-60
2021/09/27 01:06:53;;;;;;;4.13;1.78;;;;;;;;;;355625;150;856064;-60
2021/09/27 01:07:59;;;;;;;3.99;1.95;;;;;;;;;;356949;147;863566;-59
2021/09/27 01:09:04;;;;;;;3.37;1.79;;;;;;;;;;356146;147;856370;-59
2021/09/27 01:10:20;;;;;;;5.24;2.02;;;;;;;;;;358597;147;856338;-59
2021/09/27 01:11:23;;;;;;;3.67;1.57;;;;;;;;;;357797;147;856284;-60
2021/09/27 01:12:43;;;;;;;2.65;1.59;;;;;;;;;;341475;153;856278;-60
2021/09/27 01:13:59;;;;;;;6.98;2.12;;;;;;;;;;357794;147;857092;-60
2021/09/27 01:15:11;;;;;;;7.31;1.98;;;;;;;;;;357391;147;863771;-60
2021/09/27 01:16:16;;;;;;;4.03;1.50;;;;;;;;;;357137;147;856425;-60
2021/09/27 01:17:31;;;;;;;3.27;1.67;;;;;;;;;;356138;147;856374;-60
2021/09/27 01:18:37;;;;;;;4.66;1.58;;;;;;;;;;356503;149;863546;-60
2021/09/27 01:19:56;;;;;;;3.49;1.90;;;;;;;;;;357417;147;856642;-60
2021/09/27 01:21:18;;;;;;;2.72;1.61;;;;;;;;;;356847;147;856241;-60
2021/09/27 01:22:21;;;;;;;5.42;1.67;;;;;;;;;;356431;147;856544;-60
2021/09/27 01:23:43;;;;;;;4.26;1.98;;;;;;;;;;355346;149;856296;-60
2021/09/27 01:24:47;;;;;;;4.35;1.92;;;;;;;;;;356959;147;856292;-59
2021/09/27 01:25:50;;;;;;;4.85;1.72;;;;;;;;;;357553;147;856042;-60
2021/09/27 01:26:57;;;;;;;2.71;1.58;;;;;;;;;;356834;147;856103;-60
2021/09/27 01:28:15;;;;;;;4.10;1.43;;;;;;;;;;356712;147;863636;-60
2021/09/27 01:29:37;;;;;;;4.97;1.82;;;;;;;;;;355266;147;856480;-60
2021/09/27 01:30:57;;;;;;;3.11;1.66;;;;;;;;;;352638;149;856107;-60
2021/09/27 01:32:01;;;;;;;3.58;1.57;;;;;;;;;;352703;149;856266;-60
2021/09/27 01:33:04;;;;;;;3.82;1.86;;;;;;;;;;353059;149;856158;-60
2021/09/27 01:34:10;;;;;;;5.71;1.74;;;;;;;;;;352652;149;864603;-60
2021/09/27 01:35:20;;;;;;;3.74;2.21;;;;;;;;;;350958;149;857115;-60
2021/09/27 01:36:33;;;;;;;5.19;1.78;;;;;;;;;;352817;150;856212;-60
2021/09/27 01:37:36;;;;;;;8.49;1.83;;;;;;;;;;353524;149;856662;-60
2021/09/27 01:38:40;;;;;;;2.92;1.82;;;;;;;;;;353677;149;856040;-60
2021/09/27 01:39:43;;;;;;;3.09;1.70;;;;;;;;;;354679;149;856031;-60
2021/09/27 01:40:56;;;;;;;4.39;1.81;;;;;;;;;;350883;149;856435;-59
2021/09/27 01:41:59;;;;;;;3.98;1.86;;;;;;;;;;351774;150;861442;-60
2021/09/27 01:43:02;;;;;;;7.55;1.85;;;;;;;;;;346020;152;856217;-60
2021/09/27 01:44:21;;;;;;;5.07;1.79;;;;;;;;;;346661;152;856180;-59
2021/09/27 01:45:41;;;;;;;3.50;1.75;;;;;;;;;;339561;155;856314;-60
2021/09/27 01:46:47;;;;;;;6.17;1.96;;;;;;;;;;345910;155;856068;-60
2021/09/27 01:47:50;;;;;;;6.75;1.83;;;;;;;;;;344636;153;863970;-60
2021/09/27 01:48:59;;;;;;;4.53;1.87;;;;;;;;;;345657;153;856125;-60
2021/09/27 01:50:19;;;;;;;5.36;2.06;;;;;;;;;;341879;155;864682;-60
2021/09/27 01:51:25;;;;;;;6.57;1.97;;;;;;;;;;346820;151;856400;-60
2021/09/27 01:52:29;;;;;;;3.51;1.82;;;;;;;;;;345275;153;857218;-60
2021/09/27 01:53:32;;;;;;;4.49;1.77;;;;;;;;;;345988;151;856964;-60
2021/09/27 01:54:45;;;;;;;8.13;2.21;;;;;;;;;;346625;151;856364;-61
2021/09/27 01:55:51;;;;;;;5.03;1.84;;;;;;;;;;345982;151;856732;-60
2021/09/27 01:56:55;;;;;;;3.60;1.81;;;;;;;;;;346602;152;856131;-60
2021/09/27 01:57:58;;;;;;;3.72;1.91;;;;;;;;;;345914;154;856667;-60
2021/09/27 01:59:08;;;;;;;3.05;1.61;;;;;;;;;;345611;151;856338;-60
2021/09/27 02:00:15;;;;;;;4.21;1.92;;;;;;;;;;342520;154;856205;-60
2021/09/27 02:01:30;;;;;;;5.51;1.92;;;;;;;;;;345375;151;863612;-60
2021/09/27 02:02:52;;;;;;;4.08;1.76;;;;;;;;;;338689;155;856516;-60
2021/09/27 02:03:54;;;;;;;3.17;1.70;;;;;;;;;;346043;151;856296;-60
2021/09/27 02:04:58;;;;;;;3.73;2.03;;;;;;;;;;339624;154;856637;-60
2021/09/27 02:06:08;;;;;;;7.24;2.02;;;;;;;;;;346299;152;856302;-60
2021/09/27 02:07:10;;;;;;;3.26;1.84;;;;;;;;;;352633;149;856251;-60
2021/09/27 02:08:12;;;;;;;4.75;1.93;;;;;;;;;;352523;149;856109;-60
2021/09/27 02:09:18;;;;;;;3.63;1.61;;;;;;;;;;353388;149;856450;-60
2021/09/27 02:10:20;;;;;;;6.20;2.04;;;;;;;;;;352353;150;856710;-60
2021/09/27 02:11:24;;;;;;;5.53;1.93;;;;;;;;;;352380;152;856784;-60
2021/09/27 02:12:27;;;;;;;6.09;1.94;;;;;;;;;;353182;152;856363;-60
2021/09/27 02:13:47;;;;;;;4.14;2.05;;;;;;;;;;352947;150;856274;-60
2021/09/27 02:14:50;;;;;;;2.75;1.52;;;;;;;;;;351862;150;856235;-59
2021/09/27 02:16:06;;;;;;;7.28;2.20;;;;;;;;;;355910;149;856391;-60
2021/09/27 02:17:15;;;;;;;2.99;1.83;;;;;;;;;;351960;152;856726;-60
2021/09/27 02:18:19;;;;;;;4.01;1.63;;;;;;;;;;353326;149;856756;-59
2021/09/27 02:19:22;;;;;;;4.25;2.10;;;;;;;;;;352682;149;856640;-60
2021/09/27 02:20:26;;;;;;;4.02;2.01;;;;;;;;;;346324;152;856923;-60
2021/09/27 02:21:29;;;;;;;3.74;1.90;;;;;;;;;;346096;152;856351;-60
2021/09/27 02:22:32;;;;;;;5.11;1.92;;;;;;;;;;353509;149;856092;-60
2021/09/27 02:23:36;;;;;;;6.41;1.94;;;;;;;;;;352876;149;857046;-60
2021/09/27 02:24:42;;;;;;;4.78;1.63;;;;;;;;;;352868;149;856296;-60
2021/09/27 02:25:43;;;;;;;5.42;2.07;;;;;;;;;;352545;149;856237;-60
2021/09/27 02:26:47;;;;;;;4.05;2.12;;;;;;;;;;353609;149;856152;-60
2021/09/27 02:27:49;;;;;;;5.36;2.06;;;;;;;;;;352110;149;856221;-60
2021/09/27 02:28:51;;;;;;;4.47;1.83;;;;;;;;;;353311;149;856573;-60
2021/09/27 02:29:53;;;;;;;4.98;1.84;;;;;;;;;;355151;147;863829;-59
2021/09/27 02:31:02;;;;;;;3.15;1.90;;;;;;;;;;355893;147;864192;-60
2021/09/27 02:32:09;;;;;;;4.56;1.80;;;;;;;;;;357249;147;858767;-60
2021/09/27 02:33:21;;;;;;;4.99;2.14;;;;;;;;;;357066;147;856400;-59
2021/09/27 02:34:25;;;;;;;3.97;2.03;;;;;;;;;;353958;150;856282;-60
2021/09/27 02:35:28;;;;;;;5.01;2.12;;;;;;;;;;356720;147;856819;-60
2021/09/27 02:36:35;;;;;;;11.55;2.21;;;;;;;;;;355541;147;856156;-59
2021/09/27 02:37:38;;;;;;;4.93;2.09;;;;;;;;;;356264;147;863745;-60
2021/09/27 02:38:50;;;;;;;3.76;1.98;;;;;;;;;;358498;147;856047;-60
2021/09/27 02:39:54;;;;;;;5.03;2.31;;;;;;;;;;357574;149;856204;-59
2021/09/27 02:40:58;;;;;;;7.36;2.21;;;;;;;;;;357412;150;856031;-60
2021/09/27 02:42:09;;;;;;;8.19;2.50;;;;;;;;;;354220;150;864085;-60
2021/09/27 02:43:11;;;;;;;6.09;2.71;;;;;;;;;;357021;147;863649;-59
2021/09/27 02:44:13;;;;;;;10.86;2.54;;;;;;;;;;356325;147;856211;-59
2021/09/27 02:45:14;;;;;;;6.04;2.39;;;;;;;;;;356303;147;856877;-59
2021/09/27 02:46:16;;;;;;;3.86;2.11;;;;;;;;;;355858;147;864510;-60
2021/09/27 02:47:19;;;;;;;3.15;2.11;;;;;;;;;;356886;147;863965;-60
2021/09/27 02:48:32;;;;;;;8.26;2.43;;;;;;;;;;357593;147;864343;-60
2021/09/27 02:49:31;;;;;;;8.40;2.26;;;;;;;;;;356463;147;856606;-60
2021/09/27 02:50:33;;;;;;;3.71;2.05;;;;;;;;;;355695;148;856264;-60
2021/09/27 02:51:34;;;;;;;4.59;2.34;;;;;;;;;;356949;147;856891;-61
2021/09/27 02:52:36;;;;;;;3.71;2.08;;;;;;;;;;357330;147;858984;-60
2021/09/27 02:53:37;;;;;;;4.76;2.35;;;;;;;;;;356316;147;863913;-59
2021/09/27 02:54:44;;;;;;;4.35;1.90;;;;;;;;;;357545;147;856231;-60
2021/09/27 02:55:57;;;;;;;4.49;1.94;;;;;;;;;;355968;149;858633;-60
2021/09/27 02:57:03;;;;;;;4.57;2.01;;;;;;;;;;356888;147;856201;-60
2021/09/27 02:58:13;;;;;;;7.54;2.19;;;;;;;;;;357004;149;856806;-59
2021/09/27 02:59:28;;;;;;;5.88;2.26;;;;;;;;;;354761;147;856069;-60
2021/09/27 03:00:33;;;;;;;5.42;2.55;;;;;;;;;;354938;147;856511;-60
2021/09/27 03:01:46;;;;;;;4.24;2.28;;;;;;;;;;356557;149;856091;-60
2021/09/27 03:03:06;;;;;;;4.54;2.62;;;;;;;;;;357434;147;856104;-60
2021/09/27 03:04:11;;;;;;;10.80;2.65;;;;;;;;;;356092;147;856666;-59
2021/09/27 03:05:17;;;;;;;6.00;2.51;;;;;;;;;;356135;147;856140;-60
2021/09/27 03:06:24;;;;;;;6.61;2.76;;;;;;;;;;354927;149;856278;-60
2021/09/27 03:07:27;;;;;;;4.21;2.38;;;;;;;;;;357915;147;856262;-59
2021/09/27 03:08:34;;;;;;;5.56;3.19;;;;;;;;;;357389;149;856040;-59
2021/09/27 03:09:43;;;;;;;6.14;3.47;;;;;;;;;;342196;153;856116;-59
2021/09/27 03:10:56;;;;;;;5.11;2.65;;;;;;;;;;358743;147;856080;-59
2021/09/27 03:11:59;;;;;;;7.33;3.33;;;;;;;;;;356752;147;856055;-59
2021/09/27 03:13:14;;;;;;;6.87;3.04;;;;;;;;;;358330;147;856122;-59
2021/09/27 03:14:21;;;;;;;6.18;2.95;;;;;;;;;;357114;150;856052;-60
2021/09/27 03:15:43;;;;;;;4.51;2.88;;;;;;;;;;358920;147;856420;-60
2021/09/27 03:16:46;;;;;;;5.74;3.66;;;;;;;;;;337230;159;856125;-60
2021/09/27 03:17:52;;;;;;;9.59;3.66;;;;;;;;;;333186;160;856191;-60
2021/09/27 03:19:14;;;;;;;10.18;3.07;;;;;;;;;;336613;156;856549;-60
2021/09/27 03:20:22;;;;;;;7.38;3.16;;;;;;;;;;336843;156;856955;-60
2021/09/27 03:21:25;;;;;;;7.47;3.69;;;;;;;;;;336694;156;857374;-60
2021/09/27 03:22:38;;;;;;;9.10;3.27;;;;;;;;;;340555;149;856745;-60
2021/09/27 03:23:41;;;;;;;4.69;2.93;;;;;;;;;;356563;147;856073;-60
2021/09/27 03:24:47;;;;;;;9.31;3.67;;;;;;;;;;356199;147;855972;-60
2021/09/27 03:25:54;;;;;;;4.88;3.23;;;;;;;;;;356568;147;856456;-60
2021/09/27 03:27:01;;;;;;;9.66;3.18;;;;;;;;;;354016;147;856512;-59
2021/09/27 03:28:16;;;;;;;6.26;3.08;;;;;;;;;;356692;147;856723;-60
2021/09/27 03:29:20;;;;;;;6.58;3.20;;;;;;;;;;356765;147;856267;-61
2021/09/27 03:30:30;;;;;;;9.48;2.98;;;;;;;;;;349308;150;856526;-60
2021/09/27 03:31:46;;;;;;;8.12;3.69;;;;;;;;;;356253;149;857045;-60
2021/09/27 03:32:55;;;;;;;5.34;3.14;;;;;;;;;;357853;149;856092;-60
2021/09/27 03:33:58;;;;;;;5.26;3.04;;;;;;;;;;356417;149;856119;-60
2021/09/27 03:35:17;;;;;;;4.51;2.70;;;;;;;;;;356090;149;856636;-60
2021/09/27 03:36:38;;;;;;;4.74;3.05;;;;;;;;;;355648;149;858038;-60
2021/09/27 03:37:45;;;;;;;4.35;2.52;;;;;;;;;;356366;147;856079;-60
2021/09/27 03:38:48;;;;;;;5.92;2.95;;;;;;;;;;355988;149;856138;-60
2021/09/27 03:39:52;;;;;;;6.60;2.39;;;;;;;;;;356054;149;856508;-60
2021/09/27 03:40:55;;;;;;;4.51;2.62;;;;;;;;;;357279;147;856749;-60
2021/09/27 03:41:59;;;;;;;8.21;2.66;;;;;;;;;;354954;149;856150;-60
2021/09/27 03:43:19;;;;;;;8.20;2.59;;;;;;;;;;356034;147;856574;-60
2021/09/27 03:44:25;;;;;;;5.28;2.43;;;;;;;;;;357035;147;856246;-58
2021/09/27 03:45:29;;;;;;;4.41;1.92;;;;;;;;;;356618;147;863776;-59
2021/09/27 03:46:39;;;;;;;2.81;1.39;;;;;;;;;;358167;147;856015;-60
2021/09/27 03:47:46;;;;;;;2.07;1.33;;;;;;;;;;356048;150;856103;-60
2021/09/27 03:48:49;;;;;;;3.03;1.93;;;;;;;;;;355800;149;856819;-58
2021/09/27 03:49:56;;;;;;;4.83;2.56;;;;;;;;;;356075;149;856588;-59
2021/09/27 03:50:59;;;;;;;8.93;3.27;;;;;;;;;;356372;147;856192;-59
2021/09/27 03:52:02;;;;;;;4.39;2.62;;;;;;;;;;356779;147;856250;-59
2021/09/27 03:53:06;;;;;;;2.34;1.53;;;;;;;;;;356043;147;856768;-59
2021/09/27 03:54:08;;;;;;;4.64;1.69;;;;;;;;;;357580;147;856610;-60
2021/09/27 03:55:12;;;;;;;4.15;1.93;;;;;;;;;;349690;150;856853;-59
2021/09/27 03:56:22;;;;;;;2.08;1.09;;;;;;;;;;349441;150;856310;-60
2021/09/27 03:57:32;;;;;;;3.79;2.29;;;;;;;;;;355492;147;863842;-60
2021/09/27 03:58:38;;;;;;;3.97;2.24;;;;;;;;;;357452;147;856283;-60
2021/09/27 03:59:51;;;;;;;3.41;1.54;;;;;;;;;;357111;147;864385;-59
2021/09/27 04:00:56;;;;;;;3.16;1.53;;;;;;;;;;354986;147;856412;-60
2021/09/27 04:02:09;;;;;;;7.73;2.93;;;;;;;;;;356390;147;856638;-62
2021/09/27 04:03:12;;;;;;;5.60;2.40;;;;;;;;;;355849;147;856080;-60
2021/09/27 04:04:15;;;;;;;5.93;2.08;;;;;;;;;;359040;147;856301;-61
2021/09/27 04:05:25;;;;;;;4.44;1.77;;;;;;;;;;355258;147;856209;-60
2021/09/27 04:06:39;;;;;;;4.33;1.92;;;;;;;;;;355520;147;856756;-64
2021/09/27 04:07:53;;;;;;;4.48;1.81;;;;;;;;;;355650;147;856380;-62
2021/09/27 04:09:05;;;;;;;5.76;1.94;;;;;;;;;;356267;147;856206;-59
2021/09/27 04:10:28;;;;;;;3.56;2.04;;;;;;;;;;356099;147;856467;-60
2021/09/27 04:11:31;;;;;;;4.42;1.75;;;;;;;;;;355568;147;856739;-60
2021/09/27 04:12:35;;;;;;;2.98;1.94;;;;;;;;;;355187;147;856006;-61
2021/09/27 04:13:44;;;;;;;5.78;1.98;;;;;;;;;;356071;147;856129;-60
2021/09/27 04:14:53;;;;;;;3.99;2.40;;;;;;;;;;355834;147;856769;-61
2021/09/27 04:16:03;;;;;;;5.09;1.98;;;;;;;;;;343590;153;856960;-60
2021/09/27 04:17:06;;;;;;;2.74;2.10;;;;;;;;;;356278;147;856199;-60
2021/09/27 04:18:18;;;;;;;4.73;2.37;;;;;;;;;;355936;147;856529;-60
2021/09/27 04:19:25;;;;;;;3.71;2.12;;;;;;;;;;358206;147;857584;-58
2021/09/27 04:20:28;;;;;;;2.92;2.15;;;;;;;;;;354998;149;856829;-60
2021/09/27 04:21:38;;;;;;;4.45;1.83;;;;;;;;;;354950;147;856078;-59
2021/09/27 04:22:41;;;;;;;3.70;1.83;;;;;;;;;;354679;149;856793;-59
2021/09/27 04:23:44;;;;;;;2.99;1.91;;;;;;;;;;357711;147;856443;-59
2021/09/27 04:24:54;;;;;;;4.31;1.80;;;;;;;;;;356562;147;856138;-57
2021/09/27 04:25:58;;;;;;;2.56;1.53;;;;;;;;;;357576;149;856907;-59
2021/09/27 04:27:01;;;;;;;2.59;1.92;;;;;;;;;;355526;149;857099;-58
2021/09/27 04:28:21;;;;;;;5.39;2.09;;;;;;;;;;356439;147;856893;-59
2021/09/27 04:29:41;;;;;;;5.72;2.66;;;;;;;;;;356652;147;856247;-58
2021/09/27 04:30:45;;;;;;;4.37;2.22;;;;;;;;;;355533;149;856032;-58
2021/09/27 04:32:06;;;;;;;2.55;1.79;;;;;;;;;;356338;147;856105;-60
2021/09/27 04:33:22;;;;;;;5.13;2.77;;;;;;;;;;355617;147;856118;-60
2021/09/27 04:34:29;;;;;;;3.59;2.12;;;;;;;;;;355005;149;856162;-60
2021/09/27 04:35:44;;;;;;;4.76;2.53;;;;;;;;;;355335;147;856410;-60
2021/09/27 04:36:46;;;;;;;4.53;2.31;;;;;;;;;;357445;150;856598;-60
2021/09/27 04:37:47;;;;;;;5.69;2.41;;;;;;;;;;360243;147;857038;-60
2021/09/27 04:38:50;;;;;;;4.15;2.61;;;;;;;;;;357455;147;863750;-60
2021/09/27 04:39:51;;;;;;;3.71;2.06;;;;;;;;;;357478;147;856589;-58
2021/09/27 04:41:07;;;;;;;7.03;2.76;;;;;;;;;;350151;152;856141;-59
2021/09/27 04:42:16;;;;;;;5.34;2.64;;;;;;;;;;351559;147;856584;-59
2021/09/27 04:43:20;;;;;;;2.94;2.04;;;;;;;;;;356572;147;857140;-59
2021/09/27 04:44:26;;;;;;;2.43;1.54;;;;;;;;;;356538;147;856171;-58
2021/09/27 04:45:38;;;;;;;3.04;2.42;;;;;;;;;;356922;149;856272;-59
2021/09/27 04:46:42;;;;;;;3.79;2.34;;;;;;;;;;356831;147;856569;-59
2021/09/27 04:47:48;;;;;;;5.01;2.84;;;;;;;;;;356834;147;857469;-59
2021/09/27 04:48:52;;;;;;;4.35;2.77;;;;;;;;;;358434;149;857042;-59
2021/09/27 04:50:11;;;;;;;5.82;2.94;;;;;;;;;;355691;147;856547;-58
2021/09/27 04:51:20;;;;;;;4.43;2.91;;;;;;;;;;355596;147;856045;-59
2021/09/27 04:52:30;;;;;;;4.03;2.77;;;;;;;;;;356347;147;856749;-59
2021/09/27 04:53:36;;;;;;;5.04;2.92;;;;;;;;;;357172;147;855994;-59
2021/09/27 04:55:00;;;;;;;4.47;2.28;;;;;;;;;;353698;149;856223;-59
2021/09/27 04:56:03;;;;;;;3.93;2.79;;;;;;;;;;356181;150;856557;-59
2021/09/27 04:57:07;;;;;;;6.84;3.26;;;;;;;;;;357585;147;857165;-59
2021/09/27 04:58:16;;;;;;;3.66;2.69;;;;;;;;;;357846;147;856396;-58
2021/09/27 04:59:26;;;;;;;6.58;2.81;;;;;;;;;;358448;147;856592;-59
2021/09/27 05:00:33;;;;;;;3.73;2.52;;;;;;;;;;356143;147;856648;-58
2021/09/27 05:01:39;;;;;;;5.36;2.61;;;;;;;;;;357209;147;863672;-58
2021/09/27 05:02:58;;;;;;;8.10;2.38;;;;;;;;;;358142;147;856237;-58
2021/09/27 05:04:11;;;;;;;6.20;3.81;;;;;;;;;;354889;149;856580;-58
2021/09/27 05:05:31;;;;;;;4.91;3.36;;;;;;;;;;356284;149;856784;-58
2021/09/27 05:06:34;;;;;;;3.92;2.47;;;;;;;;;;355580;149;856726;-58
2021/09/27 05:07:38;;;;;;;7.96;4.30;;;;;;;;;;356619;150;863592;-57
2021/09/27 05:08:53;;;;;;;5.46;2.42;;;;;;;;;;355632;147;856126;-57
2021/09/27 05:10:13;;;;;;;4.47;2.58;;;;;;;;;;355466;147;856893;-58
2021/09/27 05:11:32;;;;;;;4.97;3.18;;;;;;;;;;354785;147;856646;-59
2021/09/27 05:12:54;;;;;;;5.66;3.21;;;;;;;;;;356483;149;864049;-58
2021/09/27 05:13:57;;;;;;;5.02;3.07;;;;;;;;;;357128;147;856160;-58
2021/09/27 05:15:29;;;;;;;3.78;2.46;;;;;;;8.00;94.99;63095.55;356688;147;856279;-58
2021/09/27 05:16:34;;;;;;;5.57;3.04;;;;;;;;;;351165;150;856885;-57
2021/09/27 05:17:37;;;;;;;3.76;2.56;;;;;;;;;;357520;147;856019;-58
2021/09/27 05:18:57;;;;;;;5.16;1.91;;;;;;;;;;358278;147;856119;-57
2021/09/27 05:20:01;;;;;;;4.97;2.52;;;;;;;;;;355613;147;856913;-58
2021/09/27 05:21:16;;;;;;;5.12;2.69;;;;;;;;;;356733;147;863786;-59
2021/09/27 05:22:20;;;;;;;3.52;2.24;;;;;;;;;;357634;147;856109;-58
2021/09/27 05:23:23;;;;;;;3.52;2.28;;;;;;;;;;356768;147;856337;-58
2021/09/27 05:24:27;;;;;;;5.96;2.56;;;;;;;;;;355974;147;856972;-58
2021/09/27 05:25:48;;;;;;;6.25;2.71;;;;;;;;;;357785;147;856186;-57
2021/09/27 05:27:09;;;;;;;4.12;2.04;;;;;;;;;;354910;149;863678;-58
2021/09/27 05:28:29;;;;;;;5.51;2.44;;;;;;;;;;355700;147;857284;-58
2021/09/27 05:29:32;;;;;;;3.56;2.42;;;;;;;;;;360063;147;863645;-58
2021/09/27 05:30:36;;;;;;;4.78;2.79;;;;;;;;;;357554;147;863636;-58
2021/09/27 05:31:57;;;;;;;3.24;2.42;;;;;;;;;;357177;149;856048;-58
2021/09/27 05:33:01;;;;;;;6.51;3.28;;;;;;;;;;340655;155;856629;-59
2021/09/27 05:34:10;;;;;;;5.13;2.94;;;;;;;;;;340534;155;856743;-59
2021/09/27 05:35:28;;;;;;;10.15;3.61;;;;;;;;;;340214;155;856909;-57
2021/09/27 05:36:35;;;;;;;4.07;2.56;;;;;;;;;;339948;155;856905;-58
2021/09/27 05:37:41;;;;;;;9.07;3.36;;;;;;;;;;340698;155;857152;-58
2021/09/27 05:38:47;;;;;;;3.04;2.10;;;;;;;;;;342377;149;856154;-58
2021/09/27 05:39:51;;;;;;;3.62;2.31;;;;;;;;;;357496;147;856547;-58
2021/09/27 05:41:03;;;;;;;3.28;2.14;;;;;;;;;;357132;147;856468;-58
2021/09/27 05:42:13;;;;;;;3.49;2.25;;;;;;;;;;355885;147;863665;-57
2021/09/27 05:43:20;;;;;;;3.44;2.24;;;;;;;;;;357015;147;856555;-58
2021/09/27 05:44:31;;;;;;;3.23;2.07;;;;;;;;;;357741;147;856726;-58
2021/09/27 05:45:50;;;;;;;5.73;2.35;;;;;;;;;;357042;147;857238;-59
2021/09/27 05:47:00;;;;;;;3.38;2.42;;;;;;;;;;338832;155;856218;-59
2021/09/27 05:48:03;;;;;;;4.27;2.47;;;;;;;;;;329630;160;856988;-59
2021/09/27 05:49:07;;;;;;;2.50;1.81;;;;;;;;;;337993;156;856617;-59
2021/09/27 05:50:27;;;;;;;4.26;2.23;;;;;;;;;;357713;147;856090;-58
2021/09/27 05:51:47;;;;;;;4.12;2.21;;;;;;;;;;356199;147;856527;-58
2021/09/27 05:52:50;;;;;;;6.42;2.46;;;;;;;;;;356588;147;856912;-58
2021/09/27 05:53:54;;;;;;;6.21;2.56;;;;;;;;;;357944;147;856803;-59
2021/09/27 05:54:57;;;;;;;3.12;2.15;;;;;;;;;;356081;147;856326;-59
2021/09/27 05:56:17;;;;;;;5.94;2.70;;;;;;;;;;356377;147;856238;-59
2021/09/27 05:57:21;;;;;;;6.23;2.40;;;;;;;;;;357600;147;856438;-58
2021/09/27 05:58:25;;;;;;;2.55;2.02;;;;;;;;;;357103;147;864193;-57
2021/09/27 05:59:28;;;;;;;7.48;2.98;;;;;;;;;;356610;147;856822;-59
2021/09/27 06:00:48;;;;;;;3.78;2.04;;;;;;;;;;356805;147;856149;-58
2021/09/27 06:01:54;;;;;;;2.73;1.90;;;;;;;;;;357974;147;856254;-58
2021/09/27 06:03:14;;;;;;;4.01;2.03;;;;;;;;;;356829;147;856016;-58
2021/09/27 06:04:26;;;;;;;4.85;2.28;;;;;;;;;;356919;147;856669;-57
2021/09/27 06:05:33;;;;;;;5.13;2.52;;;;;;;;;;356973;147;863692;-58
2021/09/27 06:06:39;;;;;;;2.45;1.93;;;;;;;;;;356040;149;856211;-59
2021/09/27 06:07:42;;;;;;;3.35;2.24;;;;;;;;;;357325;147;856111;-58
2021/09/27 06:08:52;;;;;;;5.44;2.47;;;;;;;;;;358045;147;856426;-58
2021/09/27 06:09:58;;;;;;;3.81;2.19;;;;;;;;;;357529;147;856083;-59
2021/09/27 06:11:11;;;;;;;3.94;1.60;;;;;;;;;;355007;147;856054;-57
2021/09/27 06:12:14;;;;;;;3.27;1.84;;;;;;;;;;355702;147;856724;-58
2021/09/27 06:13:30;;;;;;;3.26;2.00;;;;;;;;;;356041;147;856954;-61
2021/09/27 06:14:32;;;;;;;2.38;1.73;;;;;;;;;;354228;148;856340;-60
2021/09/27 06:15:35;;;;;;;2.01;1.61;;;;;;;;;;356296;150;856802;-59
2021/09/27 06:16:45;;;;;;;4.98;1.74;;;;;;;;;;356727;147;863295;-57
2021/09/27 06:17:54;;;;;;;3.64;2.13;;;;;;;;;;357664;147;863597;-59
2021/09/27 06:19:04;;;;;;;3.62;2.37;;;;;;;;;;359653;147;857277;-58
2021/09/27 06:20:26;;;;;;;29.66;4.01;;;;;;;;;;355123;147;856332;-58
2021/09/27 06:21:36;;;;;;;3.78;1.67;;;;;;;;;;337940;156;856360;-58
2021/09/27 06:22:42;;;;;;;3.32;1.80;;;;;;;;;;340133;156;856136;-59
2021/09/27 06:24:04;;;;;;;3.19;1.73;;;;;;;;;;338915;156;856378;-58
2021/09/27 06:25:10;;;;;;;4.33;1.86;;;;;;;;;;337852;155;856959;-59
2021/09/27 06:26:13;;;;;;;3.29;1.97;;;;;;;;;;339545;156;856617;-57
2021/09/27 06:27:32;;;;;;;5.51;1.71;;;;;;;;;;341184;149;856642;-58
2021/09/27 06:28:47;;;;;;;2.39;1.55;;;;;;;;;;356094;147;856460;-57
2021/09/27 06:29:54;;;;;;;3.20;2.02;;;;;;;;;;357537;149;856673;-60
2021/09/27 06:31:00;;;;;;;3.02;2.14;;;;;;;;;;356794;147;856294;-57
2021/09/27 06:32:09;;;;;;;4.67;1.97;;;;;;;;;;356814;148;856152;-59
2021/09/27 06:33:22;;;;;;;4.52;2.05;;;;;;;;;;356289;148;856109;-58
2021/09/27 06:34:37;;;;;;;2.79;2.07;;;;;;;;;;356613;148;856200;-58
2021/09/27 06:35:39;;;;;;;4.67;2.14;;;;;;;;;;356175;148;856170;-58
2021/09/27 06:36:42;;;;;;;2.61;1.87;;;;;;;;;;354582;148;856077;-58
2021/09/27 06:37:44;;;;;;;3.24;1.89;;;;;;;;;;356964;148;856433;-59
2021/09/27 06:38:45;;;;;;;3.66;2.49;;;;;;;;;;355327;148;856412;-57
2021/09/27 06:39:47;;;;;;;3.64;2.04;;;;;;;;;;353998;149;856247;-58
2021/09/27 06:40:49;;;;;;;4.09;1.84;;;;;;;;;;358126;148;863629;-58
2021/09/27 06:41:51;;;;;;;6.01;1.83;;;;;;;;;;355325;148;863534;-59
2021/09/27 06:42:52;;;;;;;6.21;2.26;;;;;;;;;;355432;148;856114;-59
2021/09/27 06:43:54;;;;;;;3.52;2.22;;;;;;;;;;356302;148;856589;-59